createdAt,value
2019-03-29T00:02:17.082Z,10.20
2019-03-29T00:04:50.625Z,10.10
2019-03-29T00:07:19.806Z,10.10
2019-03-29T00:09:50.015Z,10.10
2019-03-29T00:12:31.074Z,10.10
2019-03-29T00:15:01.722Z,10.00
2019-03-29T00:17:35.957Z,9.90
2019-03-29T00:20:10.969Z,9.90
2019-03-29T00:22:41.067Z,9.90
2019-03-29T00:25:11.242Z,9.90
2019-03-29T00:27:42.042Z,9.90
2019-03-29T00:30:12.299Z,9.90
2019-03-29T00:32:43.572Z,9.90
2019-03-29T00:35:14.458Z,10.00
2019-03-29T00:37:53.324Z,10.00
2019-03-29T00:40:15.536Z,9.90
2019-03-29T00:42:46.866Z,10.00
2019-03-29T00:45:21.102Z,9.90
2019-03-29T00:47:56.835Z,9.80
2019-03-29T00:50:27.117Z,9.80
2019-03-29T00:52:57.495Z,9.80
2019-03-29T00:55:26.755Z,9.80
2019-03-29T00:57:56.217Z,9.70
2019-03-29T01:00:31.353Z,9.80
2019-03-29T01:03:00.861Z,9.90
2019-03-29T01:05:31.657Z,9.80
2019-03-29T01:08:08.111Z,9.80
2019-03-29T01:10:34.962Z,9.60
2019-03-29T01:13:04.257Z,9.60
2019-03-29T01:15:37.603Z,9.50
2019-03-29T01:18:09.691Z,9.50
2019-03-29T01:20:42.647Z,9.50
2019-03-29T01:23:14.998Z,9.40
2019-03-29T01:25:44.703Z,9.50
2019-03-29T01:28:13.884Z,9.60
2019-03-29T01:30:46.514Z,9.50
2019-03-29T01:33:21.658Z,9.80
2019-03-29T01:35:53.261Z,9.70
2019-03-29T01:38:26.258Z,9.70
2019-03-29T01:40:59.091Z,9.50
2019-03-29T01:43:28.252Z,9.40
2019-03-29T01:45:59.756Z,9.30
2019-03-29T01:48:30.657Z,9.20
2019-03-29T01:51:01.318Z,9.30
2019-03-29T01:53:31.257Z,9.20
2019-03-29T01:56:00.409Z,9.20
2019-03-29T01:58:32.468Z,9.10
2019-03-29T02:01:02.315Z,9.20
2019-03-29T02:03:36.162Z,9.20
2019-03-29T02:06:07.615Z,9.20
2019-03-29T02:08:40.091Z,9.10
2019-03-29T02:11:09.261Z,9.10
2019-03-29T02:13:38.923Z,9.20
2019-03-29T02:16:10.071Z,9.30
2019-03-29T02:18:41.830Z,9.30
2019-03-29T02:21:11.298Z,9.30
2019-03-29T02:23:41.541Z,9.30
2019-03-29T02:26:10.791Z,9.20
2019-03-29T02:28:39.958Z,9.10
2019-03-29T02:31:11.128Z,9.00
2019-03-29T02:33:50.485Z,9.00
2019-03-29T02:36:19.764Z,9.00
2019-03-29T02:38:55.783Z,9.00
2019-03-29T02:41:22.874Z,9.00
2019-03-29T02:43:53.771Z,9.00
2019-03-29T02:46:25.626Z,9.10
2019-03-29T02:48:56.192Z,9.10
2019-03-29T02:51:25.455Z,9.00
2019-03-29T02:53:55.697Z,9.00
2019-03-29T02:56:24.852Z,8.90
2019-03-29T02:58:54.025Z,9.00
2019-03-29T03:01:23.266Z,9.00
2019-03-29T03:03:54.166Z,9.00
2019-03-29T03:06:23.475Z,9.00
2019-03-29T03:08:53.583Z,9.10
2019-03-29T03:11:22.834Z,9.20
2019-03-29T03:13:53.001Z,9.10
2019-03-29T03:16:22.246Z,9.10
2019-03-29T03:18:51.583Z,9.30
2019-03-29T03:21:21.848Z,9.10
2019-03-29T03:23:53.028Z,9.00
2019-03-29T03:26:23.749Z,9.00
2019-03-29T03:28:56.874Z,9.00
2019-03-29T03:31:26.363Z,9.00
2019-03-29T03:33:57.864Z,9.00
2019-03-29T03:36:27.134Z,8.90
2019-03-29T03:38:57.519Z,8.90
2019-03-29T03:41:27.049Z,9.00
2019-03-29T03:44:03.012Z,9.00
2019-03-29T03:46:29.670Z,8.90
2019-03-29T03:48:58.843Z,8.80
2019-03-29T03:51:28.076Z,8.80
2019-03-29T03:53:57.330Z,8.90
2019-03-29T03:56:26.493Z,8.90
2019-03-29T03:58:55.691Z,8.80
2019-03-29T04:01:25.016Z,8.70
2019-03-29T04:03:54.274Z,8.70
2019-03-29T04:06:24.539Z,8.70
2019-03-29T04:08:53.758Z,8.70
2019-03-29T04:11:23.939Z,8.80
2019-03-29T04:13:54.187Z,8.90
2019-03-29T04:16:23.512Z,8.90
2019-03-29T04:18:55.348Z,8.80
2019-03-29T04:21:25.564Z,8.80
2019-03-29T04:23:54.768Z,8.70
2019-03-29T04:26:26.069Z,8.70
2019-03-29T04:29:04.241Z,8.60
2019-03-29T04:31:27.878Z,8.60
2019-03-29T04:34:00.690Z,8.60
2019-03-29T04:36:30.113Z,8.60
2019-03-29T04:39:05.988Z,8.60
2019-03-29T04:41:36.206Z,8.50
2019-03-29T04:44:05.392Z,8.50
2019-03-29T04:46:36.194Z,8.50
2019-03-29T04:49:05.394Z,8.60
2019-03-29T04:51:36.738Z,8.50
2019-03-29T04:54:05.939Z,8.50
2019-03-29T04:56:36.263Z,8.50
2019-03-29T04:59:05.581Z,8.50
2019-03-29T05:01:34.880Z,8.50
2019-03-29T05:04:04.127Z,8.40
2019-03-29T05:06:33.400Z,8.50
2019-03-29T05:09:05.254Z,8.50
2019-03-29T05:11:34.531Z,8.40
2019-03-29T05:14:03.850Z,8.40
2019-03-29T05:16:33.018Z,8.50
2019-03-29T05:19:06.030Z,8.50
2019-03-29T05:21:34.506Z,8.50
2019-03-29T05:24:03.814Z,8.50
2019-03-29T05:26:35.017Z,8.50
2019-03-29T05:29:04.324Z,8.50
2019-03-29T05:31:34.084Z,8.60
2019-03-29T05:34:04.274Z,8.60
2019-03-29T05:36:33.579Z,8.60
2019-03-29T05:39:02.804Z,8.60
2019-03-29T05:41:32.001Z,8.50
2019-03-29T05:44:01.200Z,8.60
2019-03-29T05:46:32.327Z,8.60
2019-03-29T05:49:02.619Z,8.50
2019-03-29T05:51:32.924Z,8.50
2019-03-29T05:54:02.173Z,8.50
2019-03-29T05:56:33.465Z,8.60
2019-03-29T05:59:02.937Z,8.70
2019-03-29T06:01:32.201Z,8.80
2019-03-29T06:04:01.382Z,8.80
2019-03-29T06:06:31.662Z,8.90
2019-03-29T06:09:01.954Z,9.00
2019-03-29T06:11:32.524Z,8.90
2019-03-29T06:14:03.174Z,8.70
2019-03-29T06:16:38.906Z,8.70
2019-03-29T06:19:04.625Z,8.80
2019-03-29T06:21:34.015Z,8.80
2019-03-29T06:24:04.918Z,8.90
2019-03-29T06:26:35.104Z,9.10
2019-03-29T06:29:04.317Z,9.10
2019-03-29T06:31:33.835Z,9.20
2019-03-29T06:34:06.596Z,9.40
2019-03-29T06:36:36.749Z,9.40
2019-03-29T06:39:07.522Z,9.50
2019-03-29T06:41:40.506Z,9.40
2019-03-29T06:44:09.819Z,9.40
2019-03-29T06:46:39.157Z,9.40
2019-03-29T06:49:08.421Z,9.40
2019-03-29T06:51:37.692Z,9.40
2019-03-29T06:54:07.984Z,9.50
2019-03-29T06:56:37.215Z,9.50
2019-03-29T06:59:06.513Z,9.70
2019-03-29T07:01:35.767Z,9.70
2019-03-29T07:04:04.937Z,9.80
2019-03-29T07:06:34.197Z,9.80
2019-03-29T07:09:04.805Z,9.90
2019-03-29T07:11:35.730Z,9.90
2019-03-29T07:14:06.066Z,9.90
2019-03-29T07:16:35.561Z,10.10
2019-03-29T07:19:05.189Z,10.40
2019-03-29T07:21:34.711Z,10.30
2019-03-29T07:24:05.177Z,10.30
2019-03-29T07:26:35.333Z,10.40
2019-03-29T07:29:07.253Z,10.50
2019-03-29T07:31:37.484Z,10.70
2019-03-29T07:34:06.847Z,11.20
2019-03-29T07:36:37.116Z,11.40
2019-03-29T07:39:06.379Z,11.40
2019-03-29T07:41:36.526Z,11.50
2019-03-29T07:44:06.778Z,11.80
2019-03-29T07:46:37.259Z,11.70
2019-03-29T07:49:08.046Z,11.70
2019-03-29T07:51:37.317Z,11.60
2019-03-29T07:54:07.727Z,11.80
2019-03-29T07:56:37.022Z,11.70
2019-03-29T07:59:08.914Z,11.80
2019-03-29T08:01:39.054Z,12.20
2019-03-29T08:04:09.608Z,12.20
2019-03-29T08:06:40.811Z,12.20
2019-03-29T08:09:21.684Z,12.20
2019-03-29T08:11:46.580Z,12.40
2019-03-29T08:14:15.098Z,12.40
2019-03-29T08:16:46.323Z,12.50
2019-03-29T08:19:17.132Z,12.70
2019-03-29T08:21:47.486Z,12.60
2019-03-29T08:24:16.776Z,12.60
2019-03-29T08:26:46.063Z,12.70
2019-03-29T08:29:15.352Z,12.70
2019-03-29T08:31:44.601Z,13.00
2019-03-29T08:34:14.426Z,13.00
2019-03-29T08:36:44.727Z,13.20
2019-03-29T08:39:27.383Z,13.10
2019-03-29T08:41:44.948Z,13.50
2019-03-29T08:44:14.892Z,13.70
2019-03-29T08:46:46.536Z,13.70
2019-03-29T08:49:17.006Z,13.70
2019-03-29T08:51:49.107Z,13.70
2019-03-29T08:54:20.949Z,13.60
2019-03-29T08:56:52.815Z,13.70
2019-03-29T08:59:22.134Z,14.00
2019-03-29T09:01:52.564Z,13.90
2019-03-29T09:04:22.771Z,14.00
2019-03-29T09:06:54.937Z,14.00
2019-03-29T09:09:24.650Z,14.00
2019-03-29T09:11:53.962Z,13.90
2019-03-29T09:14:25.233Z,14.30
2019-03-29T09:16:54.511Z,14.30
2019-03-29T09:19:24.693Z,14.40
2019-03-29T09:21:53.927Z,14.70
2019-03-29T09:24:25.719Z,14.60
2019-03-29T09:26:55.043Z,14.60
2019-03-29T09:29:24.289Z,14.80
2019-03-29T09:31:56.613Z,14.80
2019-03-29T09:34:28.873Z,14.80
2019-03-29T09:37:00.124Z,15.10
2019-03-29T09:39:30.885Z,15.00
2019-03-29T09:42:00.145Z,15.00
2019-03-29T09:44:29.455Z,14.90
2019-03-29T09:46:59.645Z,15.00
2019-03-29T09:49:31.154Z,15.20
2019-03-29T09:52:02.011Z,15.20
2019-03-29T09:54:32.151Z,15.30
2019-03-29T09:57:01.746Z,15.40
2019-03-29T09:59:32.822Z,15.40
2019-03-29T10:02:02.715Z,15.40
2019-03-29T10:04:34.574Z,15.50
2019-03-29T10:07:03.833Z,15.60
2019-03-29T10:09:35.555Z,15.90
2019-03-29T10:12:05.433Z,15.90
2019-03-29T10:14:34.755Z,15.80
2019-03-29T10:17:04.061Z,15.80
2019-03-29T10:19:33.525Z,15.90
2019-03-29T10:22:02.925Z,15.90
2019-03-29T10:24:32.173Z,15.90
2019-03-29T10:27:01.373Z,15.80
2019-03-29T10:29:30.690Z,16.10
2019-03-29T10:32:00.077Z,16.10
2019-03-29T10:34:30.398Z,16.00
2019-03-29T10:36:59.584Z,16.00
2019-03-29T10:39:28.995Z,16.20
2019-03-29T10:41:58.269Z,16.10
2019-03-29T10:44:28.383Z,16.20
2019-03-29T10:46:57.615Z,16.40
2019-03-29T10:49:26.879Z,16.40
2019-03-29T10:51:56.173Z,16.40
2019-03-29T10:54:25.454Z,16.60
2019-03-29T10:56:55.831Z,16.60
2019-03-29T10:59:27.731Z,16.70
2019-03-29T11:01:58.115Z,17.00
2019-03-29T11:04:31.732Z,17.00
2019-03-29T11:07:00.381Z,17.40
2019-03-29T11:09:30.661Z,17.70
2019-03-29T11:11:59.907Z,18.20
2019-03-29T11:14:29.225Z,18.60
2019-03-29T11:16:58.523Z,19.30
2019-03-29T11:19:31.295Z,20.20
2019-03-29T11:22:08.633Z,20.60
2019-03-29T11:24:40.553Z,20.80
2019-03-29T11:27:11.496Z,20.80
2019-03-29T11:29:41.296Z,21.30
2019-03-29T11:32:11.546Z,22.00
2019-03-29T11:34:43.115Z,22.10
2019-03-29T11:37:16.684Z,22.50
2019-03-29T11:39:45.959Z,22.70
2019-03-29T11:42:20.129Z,22.90
2019-03-29T11:44:54.306Z,22.90
2019-03-29T11:47:24.347Z,23.20
2019-03-29T11:49:56.020Z,23.90
2019-03-29T11:52:25.302Z,24.50
2019-03-29T11:54:57.111Z,25.00
2019-03-29T11:57:27.454Z,25.40
2019-03-29T11:59:57.657Z,25.20
2019-03-29T12:02:31.909Z,25.10
2019-03-29T12:05:02.046Z,25.10
2019-03-29T12:07:32.322Z,24.90
2019-03-29T12:10:02.845Z,24.70
2019-03-29T12:12:32.570Z,25.10
2019-03-29T12:15:01.856Z,25.20
2019-03-29T12:17:33.298Z,25.70
2019-03-29T12:20:04.020Z,26.00
2019-03-29T12:22:34.273Z,26.10
2019-03-29T12:25:07.162Z,26.40
2019-03-29T12:27:36.403Z,26.70
2019-03-29T12:30:08.780Z,26.90
2019-03-29T12:32:37.958Z,26.60
2019-03-29T12:35:10.149Z,26.40
2019-03-29T12:37:41.021Z,26.30
2019-03-29T12:40:11.715Z,25.90
2019-03-29T12:42:40.911Z,26.10
2019-03-29T12:45:11.690Z,25.70
2019-03-29T12:47:40.984Z,25.60
2019-03-29T12:50:10.263Z,25.60
2019-03-29T12:52:40.027Z,25.90
2019-03-29T12:55:10.234Z,25.80
2019-03-29T12:57:39.566Z,25.50
2019-03-29T13:00:08.941Z,25.20
2019-03-29T13:02:38.210Z,25.50
2019-03-29T13:05:07.400Z,26.20
2019-03-29T13:07:38.305Z,26.60
2019-03-29T13:10:08.542Z,26.40
2019-03-29T13:12:40.106Z,26.10
2019-03-29T13:15:10.329Z,25.70
2019-03-29T13:17:39.581Z,25.50
2019-03-29T13:20:08.860Z,25.10
2019-03-29T13:22:38.114Z,25.10
2019-03-29T13:25:18.156Z,25.20
2019-03-29T13:27:48.355Z,25.60
2019-03-29T13:30:17.743Z,25.50
2019-03-29T13:32:47.086Z,25.40
2019-03-29T13:35:17.348Z,25.80
2019-03-29T13:37:47.905Z,25.80
2019-03-29T13:40:21.053Z,26.00
2019-03-29T13:42:50.737Z,26.20
2019-03-29T13:45:20.961Z,25.60
2019-03-29T13:47:50.185Z,24.80
2019-03-29T13:50:20.630Z,24.50
2019-03-29T13:52:50.720Z,24.10
2019-03-29T13:55:19.939Z,23.60
2019-03-29T13:57:51.292Z,23.20
2019-03-29T14:00:20.507Z,22.90
2019-03-29T14:02:49.755Z,22.00
2019-03-29T14:05:20.158Z,21.30
2019-03-29T14:07:50.388Z,20.70
2019-03-29T14:10:24.137Z,20.30
2019-03-29T14:12:54.394Z,20.00
2019-03-29T14:15:24.420Z,19.90
2019-03-29T14:17:59.143Z,19.70
2019-03-29T14:20:35.139Z,19.70
2019-03-29T14:23:04.340Z,19.60
2019-03-29T14:25:33.676Z,19.50
2019-03-29T14:28:05.033Z,19.60
2019-03-29T14:30:36.229Z,19.50
2019-03-29T14:33:09.482Z,19.60
2019-03-29T14:35:40.325Z,19.50
2019-03-29T14:38:11.130Z,19.40
2019-03-29T14:40:40.666Z,19.30
2019-03-29T14:43:09.973Z,19.30
2019-03-29T14:45:41.560Z,19.40
2019-03-29T14:48:14.414Z,19.20
2019-03-29T14:50:43.724Z,19.10
2019-03-29T14:53:13.940Z,18.90
2019-03-29T14:55:44.518Z,18.80
2019-03-29T14:58:13.904Z,19.00
2019-03-29T15:00:44.440Z,19.30
2019-03-29T15:03:14.602Z,19.30
2019-03-29T15:05:43.873Z,19.20
2019-03-29T15:08:14.545Z,19.10
2019-03-29T15:10:46.005Z,19.10
2019-03-29T15:13:16.283Z,19.00
2019-03-29T15:15:46.520Z,18.90
2019-03-29T15:18:15.781Z,19.00
2019-03-29T15:20:53.588Z,19.00
2019-03-29T15:23:19.832Z,19.00
2019-03-29T15:25:49.144Z,18.90
2019-03-29T15:28:37.443Z,19.00
2019-03-29T15:31:12.652Z,18.90
2019-03-29T15:33:55.657Z,18.90
2019-03-29T15:36:26.191Z,18.80
2019-03-29T15:39:13.522Z,18.70
2019-03-29T15:41:52.958Z,18.70
2019-03-29T15:44:26.857Z,18.70
2019-03-29T15:46:58.869Z,19.00
2019-03-29T15:49:33.289Z,19.00
2019-03-29T15:52:05.078Z,19.10
2019-03-29T15:54:48.087Z,19.30
2019-03-29T15:57:17.268Z,19.00
2019-03-29T15:59:48.496Z,18.80
2019-03-29T16:02:19.830Z,18.60
2019-03-29T16:04:49.000Z,18.90
2019-03-29T16:07:19.363Z,18.80
2019-03-29T16:09:48.668Z,18.90
2019-03-29T16:12:18.121Z,19.00
2019-03-29T16:14:47.372Z,18.90
2019-03-29T16:17:18.566Z,18.90
2019-03-29T16:19:47.775Z,18.90
2019-03-29T16:22:17.946Z,18.90
2019-03-29T16:24:52.085Z,18.90
2019-03-29T16:27:24.847Z,19.00
2019-03-29T16:29:52.428Z,18.90
2019-03-29T16:32:21.668Z,18.80
2019-03-29T16:34:51.197Z,18.70
2019-03-29T16:37:23.116Z,18.60
2019-03-29T16:39:53.443Z,18.60
2019-03-29T16:42:25.647Z,18.70
2019-03-29T16:44:58.440Z,18.80
2019-03-29T16:47:29.230Z,18.70
2019-03-29T16:49:58.470Z,18.90
2019-03-29T16:52:27.653Z,18.90
2019-03-29T16:54:56.977Z,18.80
2019-03-29T16:57:30.016Z,18.80
2019-03-29T16:59:59.367Z,18.70
2019-03-29T17:02:28.654Z,18.80
2019-03-29T17:04:59.457Z,18.70
2019-03-29T17:07:32.557Z,18.50
2019-03-29T17:10:01.848Z,18.50
2019-03-29T17:12:31.137Z,18.60
2019-03-29T17:15:01.389Z,18.70
2019-03-29T17:17:32.270Z,18.70
2019-03-29T17:20:01.602Z,18.50
2019-03-29T17:22:32.997Z,18.40
2019-03-29T17:25:03.421Z,18.50
2019-03-29T17:27:32.706Z,18.40
2019-03-29T17:30:03.138Z,18.40
2019-03-29T17:32:34.582Z,18.40
2019-03-29T17:35:08.631Z,18.60
2019-03-29T17:37:41.170Z,18.60
2019-03-29T17:40:12.032Z,18.60
2019-03-29T17:42:41.943Z,18.50
2019-03-29T17:45:11.282Z,18.50
2019-03-29T17:47:45.016Z,18.60
2019-03-29T17:50:14.358Z,18.40
2019-03-29T17:52:46.110Z,18.10
2019-03-29T17:55:15.369Z,18.00
2019-03-29T17:57:46.139Z,18.00
2019-03-29T18:00:17.715Z,18.00
2019-03-29T18:02:47.937Z,18.10
2019-03-29T18:05:19.295Z,18.00
2019-03-29T18:07:48.588Z,17.80
2019-03-29T18:10:18.685Z,17.70
2019-03-29T18:12:49.205Z,17.60
2019-03-29T18:15:18.427Z,17.60
2019-03-29T18:17:50.699Z,17.60
2019-03-29T18:20:20.155Z,17.60
2019-03-29T18:22:49.499Z,17.90
2019-03-29T18:25:18.814Z,18.00
2019-03-29T18:27:50.988Z,17.80
2019-03-29T18:30:25.599Z,17.60
2019-03-29T18:32:59.191Z,17.60
2019-03-29T18:35:28.578Z,17.40
2019-03-29T18:37:57.827Z,17.50
2019-03-29T18:40:31.622Z,17.40
2019-03-29T18:43:01.864Z,17.20
2019-03-29T18:45:34.411Z,17.20
2019-03-29T18:48:07.642Z,17.10
2019-03-29T18:50:39.399Z,17.00
2019-03-29T18:53:09.583Z,17.00
2019-03-29T18:55:38.850Z,17.10
2019-03-29T18:58:08.148Z,17.10
2019-03-29T19:00:39.746Z,17.30
2019-03-29T19:03:11.920Z,17.20
2019-03-29T19:05:40.865Z,16.90
2019-03-29T19:08:11.118Z,16.80
2019-03-29T19:10:41.394Z,16.70
2019-03-29T19:13:13.794Z,16.70
2019-03-29T19:15:43.090Z,16.70
2019-03-29T19:18:12.411Z,16.60
2019-03-29T19:20:42.697Z,16.50
2019-03-29T19:23:11.975Z,16.40
2019-03-29T19:25:41.275Z,16.40
2019-03-29T19:28:12.608Z,16.30
2019-03-29T19:30:42.279Z,16.40
2019-03-29T19:33:13.458Z,16.40
2019-03-29T19:35:43.107Z,16.30
2019-03-29T19:38:12.285Z,16.20
2019-03-29T19:40:41.487Z,16.20
2019-03-29T19:43:10.735Z,16.10
2019-03-29T19:45:44.368Z,16.10
2019-03-29T19:48:14.561Z,16.10
2019-03-29T19:50:44.867Z,16.10
2019-03-29T19:53:14.267Z,16.00
2019-03-29T19:55:43.545Z,16.00
2019-03-29T19:58:13.909Z,16.00
2019-03-29T20:00:43.264Z,15.90
2019-03-29T20:03:13.541Z,15.90
2019-03-29T20:05:44.322Z,15.90
2019-03-29T20:08:13.615Z,15.90
2019-03-29T20:10:44.511Z,15.90
2019-03-29T20:13:15.067Z,15.80
2019-03-29T20:15:44.335Z,15.80
2019-03-29T20:18:17.749Z,15.90
2019-03-29T20:20:47.301Z,16.20
2019-03-29T20:23:20.106Z,16.10
2019-03-29T20:25:52.417Z,16.00
2019-03-29T20:28:22.612Z,15.90
2019-03-29T20:30:52.906Z,15.80
2019-03-29T20:33:24.016Z,15.70
2019-03-29T20:35:54.214Z,15.80
2019-03-29T20:38:23.454Z,15.60
2019-03-29T20:40:54.322Z,15.60
2019-03-29T20:43:24.577Z,15.50
2019-03-29T20:46:13.771Z,15.50
2019-03-29T20:48:49.883Z,15.40
2019-03-29T20:51:19.255Z,15.30
2019-03-29T20:53:48.522Z,15.20
2019-03-29T20:56:19.008Z,15.20
2019-03-29T20:58:49.982Z,15.20
2019-03-29T21:01:21.609Z,15.10
2019-03-29T21:03:53.975Z,15.10
2019-03-29T21:06:24.066Z,15.10
2019-03-29T21:08:54.423Z,15.10
2019-03-29T21:11:25.159Z,15.10
2019-03-29T21:13:55.602Z,15.00
2019-03-29T21:16:24.850Z,15.10
2019-03-29T21:18:55.282Z,15.10
2019-03-29T21:21:25.558Z,15.00
2019-03-29T21:23:56.087Z,15.10
2019-03-29T21:26:26.344Z,15.00
2019-03-29T21:28:56.123Z,15.00
2019-03-29T21:31:26.463Z,15.00
2019-03-29T21:33:55.763Z,14.90
2019-03-29T21:36:25.078Z,14.80
2019-03-29T21:38:55.319Z,14.80
2019-03-29T21:41:24.581Z,14.80
2019-03-29T21:43:54.355Z,14.80
2019-03-29T21:46:25.588Z,14.70
2019-03-29T21:48:55.072Z,14.70
2019-03-29T21:51:24.336Z,14.70
2019-03-29T21:53:53.585Z,14.60
2019-03-29T21:56:22.959Z,14.50
2019-03-29T21:58:56.271Z,14.50
2019-03-29T22:01:26.645Z,14.40
2019-03-29T22:03:55.973Z,14.40
2019-03-29T22:06:26.084Z,14.40
2019-03-29T22:08:56.374Z,14.40
2019-03-29T22:11:25.652Z,14.40
2019-03-29T22:13:55.921Z,14.40
2019-03-29T22:16:25.214Z,14.30
2019-03-29T22:18:57.588Z,14.30
2019-03-29T22:21:26.791Z,14.30
2019-03-29T22:23:56.055Z,14.30
2019-03-29T22:26:26.919Z,14.20
2019-03-29T22:28:56.190Z,14.10
2019-03-29T22:31:25.357Z,14.10
2019-03-29T22:33:55.133Z,14.00
2019-03-29T22:36:24.366Z,14.00
2019-03-29T22:38:54.663Z,14.00
2019-03-29T22:41:24.810Z,13.90
2019-03-29T22:43:55.579Z,13.90
2019-03-29T22:46:27.025Z,13.80
2019-03-29T22:48:56.320Z,13.80
2019-03-29T22:51:26.557Z,13.90
2019-03-29T22:53:55.798Z,13.80
2019-03-29T22:56:24.974Z,13.90
2019-03-29T22:58:54.210Z,13.80
2019-03-29T23:01:23.466Z,13.70
2019-03-29T23:03:54.109Z,13.70
2019-03-29T23:06:23.652Z,13.70
2019-03-29T23:08:53.755Z,13.80
2019-03-29T23:11:23.006Z,13.80
2019-03-29T23:13:52.187Z,13.80
2019-03-29T23:16:21.466Z,13.80
2019-03-29T23:18:50.656Z,14.00
2019-03-29T23:21:19.836Z,14.10
2019-03-29T23:23:51.426Z,14.00
2019-03-29T23:26:22.570Z,14.00
2019-03-29T23:28:53.013Z,13.90
2019-03-29T23:31:23.276Z,13.80
2019-03-29T23:33:52.538Z,13.80
2019-03-29T23:36:22.742Z,14.00
2019-03-29T23:38:53.169Z,14.00
2019-03-29T23:41:24.429Z,14.00
2019-03-29T23:43:53.730Z,14.00
2019-03-29T23:46:24.618Z,14.00
2019-03-29T23:48:53.806Z,13.90
2019-03-29T23:51:24.984Z,14.00
2019-03-29T23:53:54.283Z,14.00
2019-03-29T23:56:31.007Z,14.00
2019-03-29T23:59:02.919Z,14.00
